Storm Events Database

Event Details

Event Thunderstorm Wind
Magnitude 50 kts.
State TENNESSEE
County/Area MEIGS
WFO MRX
Report Source Department of Highways
NCDC Data Source CSV
Begin Date 2007-04-03 22:30:00.0 EST-5
Begin Location 1NE DECATUR
Begin Lat/Lon 35.53/-84.79
End Date 2007-04-03 22:30:00.0 EST-5
Deaths Direct/Indirect 0/0 (fatality details below, when available...)
Injuries Direct/Indirect 0/0
Property Damage 9.00K
Crop Damage 0.00K
Episode Narrative A squall line moved through the mid south on its way into Southwest Virginia and Eastern Tennessee. A large bow developed on the line late in the evening as it approached the Cumberland Plateau. Damage was predominantly created by straight line winds. However, an EF1 Tornado also developed on the Cumberland Plateau in Claiborne county.
Event Narrative Three trees were reported down in Decatur.


     ‚Äč



All events for this episode:

Location County/Zone St. Date Time T.Z. Type Mag Dth Inj PrD CrD
Totals: 0 7 1.889M 0.00K
PIKEVILLE BLEDSOE CO. TN 04/03/2007 15:40 CST-6 Hail 1.00 in. 0 0 0.00K 0.00K
PIKEVILLE BLEDSOE CO. TN 04/03/2007 15:50 CST-6 Hail 1.00 in. 0 0 0.00K 0.00K
DEER LODGE MORGAN CO. TN 04/03/2007 17:45 EST-5 Thunderstorm Wind 50 kts. EG 0 0 20.00K 0.00K
HUNTSVILLE SCOTT CO. TN 04/03/2007 20:45 EST-5 Thunderstorm Wind 55 kts. EG 0 0 25.00K 0.00K
OSWEGO CAMPBELL CO. TN 04/03/2007 20:45 EST-5 Thunderstorm Wind 50 kts. EG 0 0 12.00K 0.00K
FORDTOWN CAMPBELL CO. TN 04/03/2007 21:05 EST-5 Thunderstorm Wind 55 kts. EG 0 0 30.00K 0.00K
NEW TAZEWELL CLAIBORNE CO. TN 04/03/2007 21:15 EST-5 Tornado EF1 0 7 1.200M 0.00K
PAULETTE UNION CO. TN 04/03/2007 21:15 EST-5 Thunderstorm Wind 55 kts. EG 0 0 20.00K 0.00K
NORMA SCOTT CO. TN 04/03/2007 21:30 EST-5 Hail 1.75 in. 0 0 0.00K 0.00K
LAKE CITY ANDERSON CO. TN 04/03/2007 21:40 EST-5 Thunderstorm Wind 55 kts. EG 0 0 60.00K 0.00K
BUFFALO SPGS GRAINGER CO. TN 04/03/2007 21:45 EST-5 Thunderstorm Wind 50 kts. EG 0 0 15.00K 0.00K
DUNLAP SEQUATCHIE CO. TN 04/03/2007 21:45 CST-6 Thunderstorm Wind 50 kts. EG 0 0 15.00K 0.00K
SNEEDVILLE HANCOCK CO. TN 04/03/2007 21:45 EST-5 Thunderstorm Wind 55 kts. EG 0 0 80.00K 0.00K
MORRISTOWN HAMBLEN CO. TN 04/03/2007 21:58 EST-5 Thunderstorm Wind 50 kts. EG 0 0 30.00K 0.00K
JASPER MARION CO. TN 04/03/2007 22:00 CST-6 Thunderstorm Wind 50 kts. EG 0 0 20.00K 0.00K
MOORESBURG HAWKINS CO. TN 04/03/2007 22:00 EST-5 Thunderstorm Wind 50 kts. EG 0 0 10.00K 0.00K
PARROTTSVILLE COCKE CO. TN 04/03/2007 22:05 EST-5 Thunderstorm Wind 52 kts. EG 0 0 20.00K 0.00K
SARATOGA SPGS BLEDSOE CO. TN 04/03/2007 22:05 CST-6 Thunderstorm Wind 55 kts. EG 0 0 65.00K 0.00K
FOUNTAIN CITY KNOX CO. TN 04/03/2007 22:10 EST-5 Thunderstorm Wind 50 kts. EG 0 0 25.00K 0.00K
ROCKWOOD ROANE CO. TN 04/03/2007 22:13 EST-5 Hail 1.00 in. 0 0 0.00K 0.00K
GREENEVILLE GREENE CO. TN 04/03/2007 22:15 EST-5 Thunderstorm Wind 50 kts. EG 0 0 25.00K 0.00K
DANDRIDGE JEFFERSON CO. TN 04/03/2007 22:20 EST-5 Thunderstorm Wind 50 kts. EG 0 0 25.00K 0.00K
MORGANTOWN RHEA CO. TN 04/03/2007 22:20 EST-5 Thunderstorm Wind 50 kts. EG 0 0 15.00K 0.00K
DECATUR MEIGS CO. TN 04/03/2007 22:30 EST-5 Thunderstorm Wind 50 kts. EG 0 0 9.00K 0.00K
MARTIN SPGS MARION CO. TN 04/03/2007 22:40 CST-6 Thunderstorm Wind 50 kts. EG 0 0 25.00K 0.00K
PHILADELPHIA LOUDON CO. TN 04/03/2007 22:45 EST-5 Thunderstorm Wind 63 kts. MG 0 0 15.00K 0.00K
SPRINGDALE SULLIVAN CO. TN 04/03/2007 22:45 EST-5 Thunderstorm Wind 50 kts. EG 0 0 20.00K 0.00K
JOHNSON CITY WASHINGTON CO. TN 04/03/2007 22:52 EST-5 Thunderstorm Wind 50 kts. EG 0 0 15.00K 0.00K
MORGANTOWN RHEA CO. TN 04/03/2007 23:00 EST-5 Thunderstorm Wind 50 kts. EG 0 0 15.00K 0.00K
ROCK CREEK UNICOI CO. TN 04/03/2007 23:00 EST-5 Thunderstorm Wind 40 kts. EG 0 0 3.00K 0.00K
ELIZABETHTON CARTER CO. TN 04/03/2007 23:10 EST-5 Thunderstorm Wind 50 kts. EG 0 0 5.00K 0.00K
ALCOA BLOUNT CO. TN 04/03/2007 23:15 EST-5 Thunderstorm Wind 50 kts. EG 0 0 20.00K 0.00K
CATLETTSBURG SEVIER CO. TN 04/03/2007 23:15 EST-5 Thunderstorm Wind 55 kts. EG 0 0 30.00K 0.00K
CHICKAMAUGA HAMILTON CO. TN 04/03/2007 23:30 EST-5 Thunderstorm Wind 50 kts. EG 0 0 20.00K 0.00K
Totals: 0 7 1.889M 0.00K